createdAt,value
2022-11-13T07:14:58.386Z,16.20
2022-11-13T07:17:44.421Z,16.30
2022-11-13T07:20:31.081Z,16.30
2022-11-13T07:23:16.909Z,16.60
2022-11-13T07:26:04.191Z,16.90
2022-11-13T07:28:50.254Z,17.30
2022-11-13T07:31:35.894Z,18.00
2022-11-13T07:34:21.751Z,18.70
2022-11-13T07:37:07.931Z,19.80
2022-11-13T07:39:53.557Z,21.00
2022-11-13T07:42:39.807Z,21.80
2022-11-13T07:45:25.681Z,22.10
2022-11-13T07:48:11.096Z,22.30
2022-11-13T07:50:59.401Z,22.80
2022-11-13T07:53:45.332Z,23.00
2022-11-13T07:56:30.811Z,23.40
2022-11-13T07:59:16.212Z,23.00
2022-11-13T08:02:01.823Z,22.10
2022-11-13T08:07:35.593Z,23.80
2022-11-13T08:10:21.325Z,23.90
2022-11-13T08:13:09.211Z,24.00
2022-11-13T08:15:55.111Z,24.40
2022-11-13T08:18:41.021Z,24.60
2022-11-13T08:21:26.924Z,25.00
2022-11-13T08:24:13.065Z,25.20
2022-11-13T08:26:58.661Z,25.10
2022-11-13T08:29:44.635Z,25.10
2022-11-13T08:32:30.782Z,24.70
2022-11-13T08:35:19.568Z,25.00
2022-11-13T08:38:08.003Z,25.20
2022-11-13T08:40:57.815Z,25.30
2022-11-13T08:43:43.508Z,25.20
2022-11-13T08:46:29.334Z,25.20
2022-11-13T08:49:15.235Z,25.10
2022-11-13T08:52:01.477Z,25.00
2022-11-13T08:54:47.625Z,25.00
2022-11-13T08:57:33.458Z,25.20
2022-11-13T09:00:20.616Z,25.70
2022-11-13T09:03:06.721Z,25.70
2022-11-13T09:05:52.436Z,25.60
2022-11-13T09:08:38.266Z,25.80
2022-11-13T09:11:27.656Z,25.30
2022-11-13T09:14:13.762Z,25.50
2022-11-13T09:16:59.781Z,25.30
2022-11-13T09:19:45.798Z,25.30
2022-11-13T09:22:31.870Z,25.60
2022-11-13T09:25:17.668Z,25.50
2022-11-13T09:28:04.531Z,25.40
2022-11-13T09:30:50.596Z,25.30
2022-11-13T09:33:36.515Z,24.80
2022-11-13T09:36:22.334Z,25.00
2022-11-13T09:39:08.437Z,25.00
2022-11-13T09:42:20.180Z,24.10
2022-11-13T09:45:12.013Z,23.10
2022-11-13T09:48:09.468Z,22.90
2022-11-13T09:50:55.994Z,22.60
2022-11-13T09:53:42.125Z,22.50
2022-11-13T09:56:28.128Z,22.90
2022-11-13T09:59:26.537Z,22.70
2022-11-13T10:02:40.438Z,22.00
2022-11-13T10:05:50.223Z,21.50
2022-11-13T10:08:57.103Z,22.30
2022-11-13T10:11:50.635Z,22.40
2022-11-13T10:14:45.988Z,22.80
2022-11-13T10:17:56.404Z,22.60
2022-11-13T10:20:49.294Z,22.70
2022-11-13T10:23:38.260Z,23.10
2022-11-13T10:26:27.594Z,21.60
2022-11-13T10:29:16.272Z,21.00
2022-11-13T10:32:26.811Z,21.60
2022-11-13T10:35:12.791Z,22.10
2022-11-13T10:38:08.679Z,22.50
2022-11-13T10:41:12.372Z,22.90
2022-11-13T10:44:21.329Z,23.30
2022-11-13T10:47:42.317Z,23.60
2022-11-13T10:50:30.504Z,23.50
2022-11-13T10:53:20.541Z,23.60
2022-11-13T10:56:27.702Z,23.40
2022-11-13T10:59:16.874Z,22.10
2022-11-13T11:02:12.062Z,21.20
2022-11-13T11:05:07.183Z,20.70
2022-11-13T11:07:57.629Z,21.30
2022-11-13T11:11:14.041Z,21.90
2022-11-13T11:14:21.870Z,21.40
2022-11-13T11:17:12.767Z,22.30
2022-11-13T11:20:37.507Z,22.30
2022-11-13T11:23:56.285Z,21.60
2022-11-13T11:27:10.019Z,21.60
2022-11-13T11:30:39.412Z,21.90
2022-11-13T11:33:39.478Z,22.50
2022-11-13T11:36:33.115Z,22.20
2022-11-13T11:39:39.883Z,21.80
2022-11-13T11:42:38.984Z,21.40
2022-11-13T11:45:36.649Z,21.80
2022-11-13T11:48:31.099Z,21.50
2022-11-13T11:51:48.630Z,21.50
2022-11-13T11:54:53.217Z,20.70
2022-11-13T11:57:55.491Z,20.50
2022-11-13T12:00:49.746Z,20.30
2022-11-13T12:03:55.581Z,20.30
2022-11-13T12:07:00.439Z,20.20
2022-11-13T12:09:57.699Z,19.90
2022-11-13T12:12:58.673Z,20.00
2022-11-13T12:16:00.947Z,20.10
2022-11-13T12:18:49.985Z,19.80
2022-11-13T12:21:44.412Z,19.60
2022-11-13T12:24:51.009Z,19.30
2022-11-13T12:27:56.833Z,19.40
2022-11-13T12:30:47.777Z,19.60
2022-11-13T12:33:45.978Z,20.00
2022-11-13T12:36:31.730Z,19.80
2022-11-13T12:39:20.440Z,19.60
2022-11-13T12:42:08.941Z,19.30
2022-11-13T12:45:07.441Z,18.90
2022-11-13T12:47:52.875Z,18.90
2022-11-13T12:50:38.745Z,19.00
2022-11-13T12:53:26.121Z,18.50
2022-11-13T12:56:23.699Z,18.70
2022-11-13T12:59:31.964Z,18.40
2022-11-13T13:02:26.754Z,18.30
2022-11-13T13:05:31.388Z,18.10
2022-11-13T13:08:35.819Z,17.70
2022-11-13T13:11:40.035Z,17.50
2022-11-13T13:14:31.848Z,17.40
2022-11-13T13:17:21.736Z,17.60
2022-11-13T13:20:13.671Z,18.00
2022-11-13T13:23:00.036Z,17.90
2022-11-13T13:25:45.468Z,17.90
2022-11-13T13:28:31.497Z,17.70
2022-11-13T13:31:39.003Z,17.50
2022-11-13T13:34:35.389Z,17.50
2022-11-13T13:37:40.200Z,17.50
2022-11-13T13:40:38.742Z,17.40
2022-11-13T13:43:24.561Z,17.60
2022-11-13T13:46:09.949Z,17.90
2022-11-13T13:48:56.946Z,17.90
2022-11-13T13:51:44.181Z,17.70
2022-11-13T13:54:31.281Z,17.70
2022-11-13T13:57:17.129Z,17.50
2022-11-13T14:00:03.374Z,17.30
2022-11-13T14:02:50.850Z,17.20
2022-11-13T14:05:36.527Z,17.20
2022-11-13T14:08:26.088Z,17.20
2022-11-13T14:11:19.471Z,17.10
2022-11-13T14:14:08.985Z,17.00
2022-11-13T14:16:55.389Z,17.00
2022-11-13T14:19:40.992Z,16.90
2022-11-13T14:22:26.804Z,16.80
2022-11-13T14:25:20.856Z,16.80
2022-11-13T14:28:12.478Z,16.70
2022-11-13T14:31:00.890Z,16.60
2022-11-13T14:33:48.283Z,16.50
2022-11-13T14:36:34.308Z,16.40
2022-11-13T14:39:30.424Z,16.30
2022-11-13T14:42:17.746Z,16.30
2022-11-13T14:45:13.830Z,16.30
2022-11-13T14:48:02.210Z,16.20
2022-11-13T14:50:55.212Z,16.20
2022-11-13T14:53:42.008Z,16.00
2022-11-13T14:56:38.442Z,16.10
2022-11-13T14:59:26.941Z,16.00
2022-11-13T15:02:13.110Z,16.10
2022-11-13T15:04:58.558Z,16.00
2022-11-13T15:07:45.621Z,16.00
2022-11-13T15:10:31.247Z,15.90
2022-11-13T15:13:17.891Z,16.00
2022-11-13T15:16:04.001Z,15.90
2022-11-13T15:18:52.124Z,15.90
2022-11-13T15:21:37.750Z,15.90
2022-11-13T15:24:23.480Z,15.80
2022-11-13T15:27:13.202Z,15.70
2022-11-13T15:29:58.760Z,15.70
2022-11-13T15:32:44.284Z,15.70
2022-11-13T15:35:29.912Z,15.70
2022-11-13T15:38:15.429Z,15.70
2022-11-13T15:41:01.502Z,15.60
2022-11-13T15:43:47.955Z,15.50
2022-11-13T15:46:33.319Z,15.60
2022-11-13T15:49:18.845Z,15.60
2022-11-13T15:52:04.653Z,15.50
2022-11-13T15:54:50.461Z,15.50
2022-11-13T15:57:37.797Z,15.50
2022-11-13T16:00:27.255Z,15.50
2022-11-13T16:03:13.247Z,15.40
2022-11-13T16:05:59.246Z,15.40
2022-11-13T16:08:45.642Z,15.40
2022-11-13T16:11:32.389Z,15.40
2022-11-13T16:14:23.412Z,15.40
2022-11-13T16:17:16.510Z,15.30
2022-11-13T16:20:02.710Z,15.20
2022-11-13T16:22:48.589Z,15.30
2022-11-13T16:25:34.321Z,15.20
2022-11-13T16:28:20.228Z,15.10
2022-11-13T16:31:05.777Z,15.10
2022-11-13T16:33:51.545Z,15.10
2022-11-13T16:36:37.270Z,15.00
2022-11-13T16:39:22.946Z,15.10
2022-11-13T16:42:08.528Z,15.00
2022-11-13T16:44:54.159Z,15.00
2022-11-13T16:47:39.916Z,15.00
2022-11-13T16:50:28.663Z,15.10
2022-11-13T16:53:14.499Z,15.30
2022-11-13T16:56:00.753Z,15.70
2022-11-13T16:58:46.625Z,15.90
2022-11-13T17:01:32.019Z,16.00
2022-11-13T17:04:17.913Z,16.20
2022-11-13T17:07:03.510Z,16.30
2022-11-13T17:09:58.867Z,16.30
2022-11-13T17:12:50.851Z,16.30
2022-11-13T17:15:36.462Z,16.30
2022-11-13T17:18:21.899Z,16.40
2022-11-13T17:21:07.606Z,16.40
2022-11-13T17:24:01.176Z,16.40
2022-11-13T17:26:46.955Z,16.40
2022-11-13T17:29:32.403Z,16.50
2022-11-13T17:32:18.647Z,16.50
2022-11-13T17:35:05.926Z,16.50
2022-11-13T17:37:51.768Z,16.50
2022-11-13T17:40:37.220Z,16.50
2022-11-13T17:43:23.176Z,16.50
2022-11-13T17:46:13.892Z,16.50
2022-11-13T17:48:59.573Z,16.50
2022-11-13T17:51:45.152Z,16.60
2022-11-13T17:54:30.686Z,16.50
2022-11-13T17:57:15.977Z,16.60
2022-11-13T18:00:01.693Z,16.60
2022-11-13T18:02:47.441Z,16.60
2022-11-13T18:05:39.067Z,16.60
2022-11-13T18:08:26.215Z,16.60
2022-11-13T18:11:22.318Z,16.60
2022-11-13T18:14:08.804Z,16.60
2022-11-13T18:16:54.275Z,16.60
2022-11-13T18:19:39.531Z,16.60
